Pomona, IL (62975)

03:08 CST le 24 janvier 2017 (GMT -0600)
SIU Physical Plant | | Change Station

Alt. 430 ft 37.71 °N, 89.22 °W | Updated 12 minutes ago

Couvert
Couvert
40.4 ° F
Paraît 36 ° F
N
6.0
Vent Variable Vent de ENE
Gusts 8.0 mph

Aujourd'hui
Haut(e) -- | Bas -- ° F
--% Risque de précip.
Hier
Haut(e) -- | Bas -- ° F
Precip. -- pouce
Pression 29.89 pouce
Visibilité 10.0 Miles terrestres
Nuages Couvert 1800 ft
Refroidissement éolien 36 ° F
Point de rosée 35 ° F
Humidité 81%
Précipitations 0.00 pouce
Profondeur de la couche neigeuse Non disponible.
7:06 AM 5:12 PM
Lune descendante, 13% visible
METAR KMDH 240852Z 01003KT 10SM OVC018 04/02 A2988 RMK AO2 SLP121 T00390017 53000
Pression 29.89 pouce
Visibilité 10.0 Miles terrestres
Nuages Couvert 1800 ft
Refroidissement éolien 36 ° F
Point de rosée 35 ° F
Humidité 81%
Précipitations 0.00 pouce
Profondeur de la couche neigeuse Non disponible.
7:06 AM 5:12 PM
Lune descendante, 13% visible
METAR KMDH 240852Z 01003KT 10SM OVC018 04/02 A2988 RMK AO2 SLP121 T00390017 53000

Get Your Daily Forecast Email!

Thanks for signing up!

Be on the lookout for a verification email in your inbox.

You'll start receiving the daily forecast at 8 AM.

×

10-Day Weather Forecast

Almanac

Astronomie

Jan. 24, 2017 Lever Coucher
Temps réel
Crépuscule civil
Crépuscule nautique
Crépuscule astronomique
Lune
Durée de lumière visible
Longueur du jour
Tomorrow will be .
, % of the Moon is Illuminated

Extrêmes aujourd'hui

State Highs State Lows

Community

WunderPhotos

Upload Photos

1,962,540 Photos téléchargées !

WunderBlog® & News

Nearby

Qualité de l'air

  Qualité de l'air Indice de la qualité de l'air Polluant
Not available.

Épaisseur de neige

Station Depth Altitude

Activité sismique

Ville Distance Mag. Time & Date
Minimum magnitude displayed is 2.5.

Températures des eaux côtières

Lieu Température

Stations

Stations météo à proximité

Emplacement de la station Température Refroidissement éolien Point de rosée Humidité Vent Precip. Alt. Mise à jour Type
                   

Watches & Warnings

There are currently no watches in effect.